Aérodrome :
LOGIN :

S'inscrire | Disclaimer

   EN    FR    IT 

 










Légende :    VFR   VFR Marginal   IFR   IFR Intensif   IFR Très Intensif
Visi : 
Plafond : 
>= 8 km
>= 3000ft
5 à 8 km
1000 à 3000 ft
1500m à 5 km
500 à 1000 ft
800 à 1500m
200 à 500 ft
< 800m
< 200 ft
Symboles :   Orages  Brouillard  Fortes neiges  Fortes précipitations  Vent > 20 kt
SIGMETs :   Divers  Orages  Givrage  Turbulence  Onde Orograph.  Cendres Volcan.







- Altitude de l'aérodrome : 348 ft
- Code IATA : LDV
- Voir les cartes d'approche


LFRJ - Landivisiau

DERNIER METAR :
  • 251030Z AUTO 28013KT 9999 SCT029 BKN035 BKN048 14/06 Q1019

METARs EXPIRÉS :
  • 251000Z AUTO 28014KT 250V310 9999 SCT026 BKN033 BKN042 13/06 Q1019
  • 250930Z AUTO 27014KT 9999 FEW020 BKN026 BKN038 13/06 Q1019
  • 250900Z AUTO 27012KT 9999 SCT022 BKN030 BKN038 12/07 Q1019
  • 250830Z AUTO 27011KT 240V300 9999 SCT018/// BKN023/// BKN031/// 12/07 Q1019
  • 250800Z AUTO 27011KT 9999 BKN013 OVC021 11/08 Q1018
  • 250730Z AUTO 26009KT 9999 SCT012 SCT018 11/08 Q1018

TAF TAF LFRJ
Valide du 25 à 09h jusqu'au 25 à 18h UTC


250800Z 2509/2518 27010KT 9999 BKN020
BECMG 2509/2511 27015G25KT
TEMPO 2509/2514 -SHRA BKN015
Pas de NOTAMs connus pour ce terrain.



MET'MAP, la Météo Aéronautique d'un coup d'oeil ! - Copyright ORBIFLY Décembre 2007 - Disclaimer

ORBIFLY MET'MAP TEAM :

Programmation & Développement : Alexandra Zaïnal
Conception & Développement : Baudouin d'Aumeries
Co-Programmation & Développement : Marc-Olivier Méhu
Soutien technique & logistique : Manuel Goepfert

Contact : metmap@orbifly.com




SOURCES & CREDITS :

   NOAA